Time;durP1;ratioP1;P1;durP2;ratioP2;P2;SDS_P1;SDS_P2;PMS_P1;PMS_P2;Temp;Humidity;BMP_temperature;BMP_pressure;BME280_temperature;BME280_humidity;BME280_pressure;Samples;Min_cycle;Max_cycle;Signal;HPM_P1;HPM_P2
2022/07/27 00:01:07;;;;;;;25.38;17.20;;;;;;;30.28;41.41;98705.28;5095328;28;20040;-69
2022/07/27 00:03:33;;;;;;;28.10;19.38;;;;;;;30.23;41.53;98702.69;5078259;28;20387;-70
2022/07/27 00:05:59;;;;;;;32.70;19.10;;;;;;;30.15;41.75;98695.16;5078213;28;20039;-70
2022/07/27 00:08:25;;;;;;;30.48;20.55;;;;;;;30.30;41.43;98703.88;5113151;28;20036;-70
2022/07/27 00:10:51;;;;;;;28.00;20.35;;;;;;;30.36;41.63;98713.59;5077780;28;20169;-70
2022/07/27 00:13:17;;;;;;;29.35;19.63;;;;;;;30.15;41.79;98695.97;5112979;28;20088;-70
2022/07/27 00:15:43;;;;;;;30.13;19.10;;;;;;;30.21;41.70;98704.91;5078427;28;20138;-72
2022/07/27 00:18:09;;;;;;;29.00;19.17;;;;;;;30.29;41.75;98704.97;5095359;28;20111;-68
2022/07/27 00:20:35;;;;;;;22.90;18.10;;;;;;;30.33;41.94;98707.94;5113187;28;20051;-68
2022/07/27 00:23:02;;;;;;;24.30;16.85;;;;;;;30.28;41.77;98699.81;5113367;28;20134;-68
2022/07/27 00:25:27;;;;;;;22.40;16.85;;;;;;;30.26;41.86;98704.81;5077967;28;20040;-68
2022/07/27 00:27:56;;;;;;;28.50;16.58;;;;;;;30.46;41.69;98715.31;5113085;28;20051;-68
2022/07/27 00:30:22;;;;;;;27.15;17.33;;;;;;;30.24;42.05;98709.78;5077756;28;20058;-68
2022/07/27 00:32:51;;;;;;;37.03;26.15;;;;;;;30.12;41.92;98702.06;5112520;28;20051;-69
2022/07/27 00:35:17;;;;;;;28.77;19.40;;;;;;;30.19;42.23;98707.94;5094730;28;20517;-69
2022/07/27 00:37:43;;;;;;;30.08;20.90;;;;;;;30.11;42.45;98708.66;5112431;28;20043;-69
2022/07/27 00:40:09;;;;;;;32.03;21.73;;;;;;;30.11;42.30;98703.16;5077257;28;20058;-69
2022/07/27 00:42:36;;;;;;;31.17;22.20;;;;;;;30.12;42.69;98725.91;5094225;28;20043;-69
2022/07/27 00:45:03;;;;;;;32.65;23.15;;;;;;;30.25;42.48;98719.59;5112261;28;20051;-70
2022/07/27 00:47:30;;;;;;;38.47;24.58;;;;;;;30.11;42.34;98721.53;5075702;28;20134;-70
2022/07/27 00:49:57;;;;;;;40.08;24.35;;;;;;;30.02;42.74;98702.28;5056921;28;20043;-69
2022/07/27 00:52:23;;;;;;;35.80;23.25;;;;;;;30.06;42.82;98716.19;5090462;28;20031;-69
2022/07/27 00:54:51;;;;;;;38.05;22.65;;;;;;;29.96;42.84;98728.16;5073378;28;20097;-69
2022/07/27 00:57:17;;;;;;;40.70;22.33;;;;;;;29.90;43.13;98726.63;5073552;28;20463;-69
2022/07/27 00:59:43;;;;;;;33.33;20.20;;;;;;;29.91;42.80;98730.19;5090126;28;20124;-69
2022/07/27 01:02:09;;;;;;;35.00;22.27;;;;;;;30.06;42.64;98729.88;5090677;28;20050;-69
2022/07/27 01:04:35;;;;;;;43.03;21.63;;;;;;;29.93;43.11;98736.16;5092381;28;20043;-69
2022/07/27 01:07:03;;;;;;;31.45;20.98;;;;;;;30.06;43.00;98730.66;5094007;28;20055;-70
2022/07/27 01:12:18;;;;;;;33.80;21.15;;;;;;;30.01;43.56;98747.22;5079354;28;20118;-69
2022/07/27 01:14:44;;;;;;;33.50;21.17;;;;;;;29.94;43.54;98737.81;5093755;28;20510;-69
2022/07/27 01:17:10;;;;;;;36.97;22.48;;;;;;;29.80;43.15;98739.72;5076683;28;20031;-68
2022/07/27 01:19:35;;;;;;;32.42;21.50;;;;;;;29.84;43.34;98740.72;5077052;28;20510;-70
2022/07/27 01:22:05;;;;;;;30.33;21.92;;;;;;;30.02;43.42;98745.28;5058821;28;20035;-68
2022/07/27 01:24:32;;;;;;;34.75;21.20;;;;;;;29.91;43.28;98744.69;5090969;28;20124;-68
2022/07/27 01:27:02;;;;;;;38.97;21.77;;;;;;;29.79;43.55;98741.66;5091036;28;20051;-70
2022/07/27 01:29:29;;;;;;;32.93;20.53;;;;;;;29.82;43.34;98740.22;5074109;28;20589;-70
2022/07/27 01:31:55;;;;;;;30.38;21.17;;;;;;;29.55;43.67;98719.91;5090831;28;20277;-70
2022/07/27 01:34:21;;;;;;;35.47;20.70;;;;;;;29.60;43.53;98724.47;5091264;28;20126;-69
2022/07/27 01:36:47;;;;;;;31.88;21.00;;;;;;;29.68;43.55;98750.38;5074500;28;20043;-68
2022/07/27 01:39:13;;;;;;;29.98;17.85;;;;;;;29.70;43.47;98735.25;5093157;28;20035;-68
2022/07/27 01:41:39;;;;;;;28.23;18.20;;;;;;;29.63;43.43;98748.50;5076355;28;20043;-68
2022/07/27 01:44:05;;;;;;;30.55;18.58;;;;;;;29.46;43.29;98727.19;5092915;28;20058;-69
2022/07/27 01:46:30;;;;;;;27.83;17.27;;;;;;;29.64;43.15;98752.06;5076483;28;20044;-69
2022/07/27 01:48:56;;;;;;;25.40;16.42;;;;;;;29.66;43.23;98750.69;5076558;28;20499;-70
2022/07/27 01:51:22;;;;;;;32.25;19.20;;;;;;;29.65;43.51;98750.94;5111588;28;20093;-69
2022/07/27 01:53:48;;;;;;;34.88;22.25;;;;;;;29.60;43.82;98749.09;5111021;28;20108;-69
2022/07/27 01:56:14;;;;;;;32.05;21.52;;;;;;;29.62;43.91;98757.81;5059528;28;20138;-69
2022/07/27 01:58:41;;;;;;;34.17;23.08;;;;;;;29.74;43.62;98749.16;5093934;28;20043;-69
2022/07/27 02:01:07;;;;;;;37.58;23.80;;;;;;;29.73;43.89;98747.50;5097055;28;20050;-69
2022/07/27 02:03:34;;;;;;;38.10;24.95;;;;;;;29.81;43.82;98746.81;5096899;28;20462;-69
2022/07/27 02:06:00;;;;;;;34.05;22.33;;;;;;;29.86;43.52;98752.19;5097355;28;20096;-69
2022/07/27 02:08:26;;;;;;;40.25;24.83;;;;;;;29.74;43.66;98752.69;5096769;28;20051;-69
2022/07/27 02:13:37;;;;;;;35.78;25.10;;;;;;;29.64;43.75;98752.91;5115219;28;20043;-69
2022/07/27 02:16:03;;;;;;;34.92;24.10;;;;;;;29.75;43.60;98768.00;5115178;28;20058;-69
2022/07/27 02:18:28;;;;;;;32.40;23.15;;;;;;;29.74;43.37;98752.69;5096894;28;20411;-69
2022/07/27 02:20:54;;;;;;;34.45;23.55;;;;;;;29.73;43.45;98753.00;5096711;28;20194;-70
2022/07/27 02:23:23;;;;;;;27.83;20.40;;;;;;;29.77;43.37;98762.25;5097532;28;20192;-70
2022/07/27 02:25:48;;;;;;;28.00;20.83;;;;;;;29.78;43.29;98767.41;5096701;28;20065;-69
2022/07/27 02:28:14;;;;;;;33.00;21.52;;;;;;;29.65;43.45;98738.09;5063162;28;20519;-69
2022/07/27 02:30:40;;;;;;;33.22;19.58;;;;;;;29.78;43.19;98761.94;5096460;28;20495;-68
2022/07/27 02:33:07;;;;;;;35.65;20.83;;;;;;;29.60;43.30;98728.03;5079344;28;20073;-68
2022/07/27 02:35:33;;;;;;;32.38;21.25;;;;;;;29.77;43.32;98759.50;5063129;28;20067;-68
2022/07/27 02:37:59;;;;;;;32.95;20.17;;;;;;;29.73;43.20;98753.81;5114498;28;20132;-68
2022/07/27 02:40:24;;;;;;;33.38;22.63;;;;;;;29.67;43.12;98740.53;5114769;28;20518;-68
2022/07/27 02:42:51;;;;;;;31.38;21.63;;;;;;;29.79;43.05;98752.59;5079644;28;20058;-69
2022/07/27 02:45:16;;;;;;;30.17;20.13;;;;;;;29.79;43.13;98751.78;5079109;28;20039;-69
2022/07/27 02:47:43;;;;;;;40.35;20.65;;;;;;;30.00;43.25;98769.44;5062770;28;20043;-68
2022/07/27 02:50:09;;;;;;;32.70;21.02;;;;;;;29.93;42.99;98763.53;5079223;28;20047;-68
2022/07/27 02:52:35;;;;;;;33.33;22.35;;;;;;;30.07;43.09;98775.31;5079141;28;20371;-68
2022/07/27 02:55:02;;;;;;;27.98;18.42;;;;;;;30.02;42.64;98764.44;5078726;28;20051;-69
2022/07/27 02:57:29;;;;;;;29.40;18.23;;;;;;;30.03;42.40;98771.56;5096212;28;20159;-69
2022/07/27 02:59:55;;;;;;;26.58;18.70;;;;;;;29.81;43.06;98749.56;5079202;28;20043;-68
2022/07/27 03:02:20;;;;;;;30.65;17.77;;;;;;;30.22;42.63;98766.78;5095839;28;20097;-69
2022/07/27 03:04:48;;;;;;;25.98;16.00;;;;;;;30.81;41.18;98769.34;5062412;28;20542;-69
2022/07/27 03:07:16;;;;;;;26.50;17.83;;;;;;;31.40;39.95;98770.91;5096130;28;20036;-72
2022/07/27 03:09:42;;;;;;;28.55;18.85;;;;;;;32.02;38.85;98783.50;5096090;28;20050;-74
2022/07/27 03:12:08;;;;;;;27.83;17.98;;;;;;;32.27;38.16;98785.50;5095721;28;20043;-73
2022/07/27 03:14:34;;;;;;;30.45;18.00;;;;;;;32.57;37.65;98784.63;5078438;28;20142;-73
2022/07/27 03:17:00;;;;;;;38.17;18.45;;;;;;;32.84;37.08;98783.50;5045019;28;20439;-71
2022/07/27 03:19:25;;;;;;;32.95;19.23;;;;;;;33.04;36.52;98785.66;5095260;28;20143;-73
2022/07/27 03:21:51;;;;;;;29.50;18.85;;;;;;;33.09;36.39;98775.25;5113278;28;20082;-71
2022/07/27 03:24:17;;;;;;;26.20;19.77;;;;;;;33.18;35.87;98789.03;5086226;28;20050;-70
2022/07/27 03:26:43;;;;;;;30.40;20.63;;;;;;;33.33;35.98;98788.53;5090177;28;20068;-73
2022/07/27 03:29:08;;;;;;;38.17;21.30;;;;;;;33.34;35.80;98792.88;5044232;27;20036;-69
2022/07/27 03:31:34;;;;;;;31.83;23.10;;;;;;;33.41;35.68;98779.47;5073169;28;20618;-70
2022/07/27 03:34:00;;;;;;;29.38;22.40;;;;;;;33.29;35.44;98768.28;5092029;28;20503;-69
2022/07/27 03:36:26;;;;;;;39.72;23.58;;;;;;;33.38;35.47;98793.84;5057476;28;20040;-69
2022/07/27 03:38:51;;;;;;;45.35;23.27;;;;;;;33.36;35.23;98769.41;5057252;28;20039;-69
2022/07/27 03:41:17;;;;;;;37.50;22.33;;;;;;;33.53;35.30;98798.88;5053432;28;20075;-72
2022/07/27 03:43:43;;;;;;;32.92;20.55;;;;;;;33.43;36.10;98796.47;5040102;28;20040;-68
2022/07/27 03:46:08;;;;;;;40.47;21.90;;;;;;;33.30;36.09;98809.25;5056131;28;20043;-69
2022/07/27 03:48:34;;;;;;;40.95;21.05;;;;;;;33.42;36.01;98814.13;5056982;28;20380;-68
2022/07/27 03:51:00;;;;;;;36.58;21.50;;;;;;;33.22;35.30;98784.47;5090844;28;20048;-68
2022/07/27 03:53:26;;;;;;;35.53;22.05;;;;;;;33.53;35.23;98815.41;5072949;28;20085;-68
2022/07/27 03:55:51;;;;;;;36.95;20.42;;;;;;;33.68;35.49;98812.09;5072909;28;20457;-69
2022/07/27 03:58:17;;;;;;;30.58;20.45;;;;;;;33.45;35.19;98814.28;5072564;28;20080;-68
2022/07/27 04:00:43;;;;;;;35.05;20.52;;;;;;;33.33;35.58;98792.09;5091223;28;20044;-68
2022/07/27 04:03:10;;;;;;;28.20;19.60;;;;;;;33.27;35.84;98809.91;5090928;28;20480;-68
2022/07/27 04:05:36;;;;;;;32.65;18.45;;;;;;;33.19;35.68;98793.41;5072466;28;20086;-68
2022/07/27 04:08:02;;;;;;;36.95;19.73;;;;;;;33.33;36.02;98800.34;5072703;28;20075;-68
2022/07/27 04:10:28;;;;;;;23.92;17.52;;;;;;;33.66;35.83;98804.16;5090959;28;20032;-68
2022/07/27 04:12:54;;;;;;;29.33;17.58;;;;;;;33.69;35.26;98813.75;5056394;28;20094;-68
2022/07/27 04:15:20;;;;;;;27.02;16.80;;;;;;;33.85;34.62;98790.84;5096884;28;20048;-69
2022/07/27 04:17:46;;;;;;;24.10;17.08;;;;;;;34.06;34.73;98804.69;5093037;28;20055;-69
2022/07/27 04:20:12;;;;;;;19.60;16.08;;;;;;;34.13;34.77;98816.03;5110875;28;20040;-69
2022/07/27 04:22:38;;;;;;;23.55;15.57;;;;;;;34.06;34.60;98807.44;5110652;28;20039;-69
2022/07/27 04:25:05;;;;;;;28.92;16.42;;;;;;;34.16;34.27;98821.69;5092507;28;20697;-70
2022/07/27 04:27:31;;;;;;;22.05;15.75;;;;;;;34.40;34.05;98820.31;5110882;28;20039;-69
2022/07/27 04:29:56;;;;;;;21.17;15.05;;;;;;;34.54;33.63;98824.41;5076133;28;20050;-69
2022/07/27 04:32:22;;;;;;;18.42;14.15;;;;;;;34.30;33.67;98821.47;5075550;28;20498;-68
2022/07/27 04:34:48;;;;;;;23.83;15.18;;;;;;;34.35;34.12;98829.56;5110429;28;20484;-68
2022/07/27 04:37:14;;;;;;;22.98;15.60;;;;;;;34.47;34.09;98804.84;5092186;28;20085;-69
2022/07/27 04:39:40;;;;;;;25.20;15.50;;;;;;;34.70;33.57;98816.38;5092331;28;20047;-68
2022/07/27 04:42:07;;;;;;;24.13;15.07;;;;;;;34.69;33.19;98817.53;5110379;28;20036;-69
2022/07/27 04:44:33;;;;;;;25.05;15.00;;;;;;;34.74;33.21;98820.88;5092161;28;20482;-69
2022/07/27 04:46:58;;;;;;;23.02;14.88;;;;;;;34.97;32.72;98819.44;5075169;28;20176;-68
2022/07/27 04:49:24;;;;;;;23.70;15.10;;;;;;;35.16;32.54;98822.53;5110970;28;20138;-69
2022/07/27 04:51:52;;;;;;;21.67;14.95;;;;;;;35.41;32.32;98820.69;5110983;28;20096;-69
2022/07/27 04:54:18;;;;;;;19.27;14.82;;;;;;;35.13;32.72;98836.19;5110043;28;20058;-70
2022/07/27 04:56:43;;;;;;;26.25;15.07;;;;;;;35.20;32.12;98812.41;5075338;28;20677;-69
2022/07/27 04:59:10;;;;;;;24.92;15.07;;;;;;;35.20;31.98;98806.88;5092112;28;20043;-69
2022/07/27 05:01:36;;;;;;;21.90;14.98;;;;;;;35.34;31.63;98817.63;5075385;28;20384;-70
2022/07/27 05:04:05;;;;;;;23.15;14.50;;;;;;;35.42;31.82;98822.31;5110290;28;20100;-69
2022/07/27 05:06:31;;;;;;;27.52;14.52;;;;;;;35.45;31.60;98814.16;5091824;28;20039;-70
2022/07/27 05:08:58;;;;;;;19.42;13.90;;;;;;;35.69;30.90;98825.25;5042362;28;20089;-70
2022/07/27 05:11:24;;;;;;;23.70;14.25;;;;;;;35.94;30.74;98817.84;5110248;28;20039;-69
2022/07/27 05:13:49;;;;;;;19.92;13.85;;;;;;;35.92;30.17;98809.09;5074388;28;20398;-72
2022/07/27 05:16:15;;;;;;;18.35;13.68;;;;;;;35.88;30.21;98801.81;5074514;28;20043;-69
2022/07/27 05:18:41;;;;;;;17.15;13.70;;;;;;;36.02;30.68;98816.13;5074756;28;20071;-70
2022/07/27 05:21:08;;;;;;;25.00;13.68;;;;;;;35.91;31.24;98818.53;5075127;28;20050;-70
2022/07/27 05:23:36;;;;;;;23.05;14.85;;;;;;;35.83;31.38;98815.91;5092376;28;20039;-70
2022/07/27 05:26:02;;;;;;;20.00;14.00;;;;;;;35.93;31.53;98818.19;5058395;28;20055;-68
2022/07/27 05:28:28;;;;;;;19.98;14.90;;;;;;;35.70;32.14;98815.81;5110248;28;20144;-70
2022/07/27 05:30:54;;;;;;;20.15;13.55;;;;;;;35.82;31.79;98820.59;5058945;28;20101;-70
2022/07/27 05:33:19;;;;;;;18.05;15.18;;;;;;;35.71;31.60;98803.63;5058049;28;20576;-70
2022/07/27 05:35:45;;;;;;;17.70;14.35;;;;;;;35.84;31.44;98826.59;5092230;28;20166;-71
2022/07/27 05:38:11;;;;;;;20.27;14.52;;;;;;;35.81;31.31;98818.97;5092032;28;20407;-68
2022/07/27 05:40:37;;;;;;;17.90;14.23;;;;;;;35.80;31.35;98819.31;5074932;28;20120;-69
2022/07/27 05:43:03;;;;;;;21.27;14.15;;;;;;;35.63;31.45;98800.94;5058152;28;20503;-70
2022/07/27 05:45:28;;;;;;;18.17;13.98;;;;;;;36.04;30.95;98822.13;5109433;28;20047;-71
2022/07/27 05:47:54;;;;;;;22.50;13.60;;;;;;;36.19;30.67;98822.25;5074720;28;20450;-70
2022/07/27 05:50:20;;;;;;;19.00;13.80;;;;;;;36.24;30.62;98824.00;5091396;28;20136;-72
2022/07/27 05:52:46;;;;;;;17.95;14.05;;;;;;;36.28;30.64;98822.13;5058591;28;20050;-70
2022/07/27 05:55:11;;;;;;;20.17;13.82;;;;;;;36.44;30.26;98828.63;5075468;28;20051;-72
2022/07/27 05:57:39;;;;;;;17.35;13.48;;;;;;;36.48;29.74;98821.22;5074636;28;20043;-69
2022/07/27 06:00:06;;;;;;;22.00;13.32;;;;;;;36.71;29.71;98822.34;5091655;28;20483;-70
2022/07/27 06:02:38;;;;;;;16.88;12.70;;;;;;;36.79;29.51;98818.69;5092377;28;20157;-71
2022/07/27 06:05:04;;;;;;;17.80;12.77;;;;;;;36.95;29.06;98819.56;5092094;28;20561;-70
2022/07/27 06:10:15;;;;;;;20.85;13.25;;;;;;;37.24;28.51;98822.03;5074626;28;20044;-71
2022/07/27 06:12:42;;;;;;;22.42;13.60;;;;;;;37.52;28.26;98820.03;5108713;28;20086;-71
2022/07/27 06:15:09;;;;;;;27.10;13.55;;;;;;;37.78;27.65;98825.91;5113074;28;20039;-73
2022/07/27 06:17:35;;;;;;;20.33;13.07;;;;;;;37.82;27.24;98826.84;5077321;28;20035;-71
2022/07/27 06:20:03;;;;;;;17.58;12.65;;;;;;;38.13;27.53;98813.03;5090099;28;20181;-71
2022/07/27 06:22:28;;;;;;;24.27;13.45;;;;;;;38.32;26.90;98815.06;5070130;28;20541;-70
2022/07/27 06:25:00;;;;;;;22.17;13.38;;;;;;;38.56;27.03;98800.97;5071270;28;20134;-72
2022/07/27 06:27:28;;;;;;;21.00;12.18;;;;;;;38.60;26.84;98812.97;5091492;28;20052;-70
2022/07/27 06:29:54;;;;;;;23.60;12.45;;;;;;;38.74;26.55;98818.84;5057000;28;20525;-71
2022/07/27 06:32:20;;;;;;;21.33;13.00;;;;;;;38.90;26.41;98816.81;5073981;28;20051;-72
2022/07/27 06:34:45;;;;;;;23.30;12.90;;;;;;;39.01;26.52;98817.06;5040927;28;20138;-72
2022/07/27 06:37:13;;;;;;;27.13;12.65;;;;;;;39.19;25.98;98819.06;5090430;28;20047;-69
2022/07/27 06:39:39;;;;;;;25.27;12.23;;;;;;;39.30;25.84;98824.81;5084273;28;20032;-70
2022/07/27 06:42:05;;;;;;;27.00;12.00;;;;;;;39.44;25.10;98827.91;5086550;28;20050;-70
2022/07/27 06:44:31;;;;;;;16.42;11.85;;;;;;;39.27;24.39;98831.94;5054692;28;20040;-70
2022/07/27 06:46:56;;;;;;;18.20;11.73;;;;;;;38.80;25.17;98814.59;5057683;28;20047;-70
2022/07/27 06:49:25;;;;;;;14.93;11.25;;;;;;;38.80;25.08;98825.72;5092341;28;20054;-69
2022/07/27 06:51:52;;;;;;;12.82;11.27;;;;;;;38.78;25.56;98821.69;5057910;28;20036;-71
2022/07/27 06:54:17;;;;;;;24.67;12.13;;;;;;;38.98;25.03;98824.16;5072783;28;20098;-71
2022/07/27 06:56:43;;;;;;;21.20;12.52;;;;;;;38.78;25.37;98830.03;5078363;28;20408;-70
2022/07/27 06:59:09;;;;;;;17.05;11.75;;;;;;;38.94;24.85;98803.81;5072119;28;20047;-70
2022/07/27 07:01:34;;;;;;;13.32;10.55;;;;;;;39.34;24.83;98815.38;5089674;28;20039;-70
2022/07/27 07:04:00;;;;;;;17.23;11.13;;;;;;;39.79;24.61;98836.94;5110544;28;20050;-71
2022/07/27 07:06:26;;;;;;;19.75;12.15;;;;;;;40.09;24.43;98833.13;5058622;28;20032;-70
2022/07/27 07:08:52;;;;;;;15.15;11.07;;;;;;;40.37;23.78;98843.97;5091911;28;20046;-70
2022/07/27 07:11:18;;;;;;;19.25;11.02;;;;;;;40.69;23.20;98817.44;5070280;28;20036;-71
2022/07/27 07:13:46;;;;;;;18.08;11.13;;;;;;;41.10;22.64;98822.00;5049664;28;20122;-70
2022/07/27 07:16:12;;;;;;;13.68;10.70;;;;;;;41.49;22.44;98842.78;5086298;28;20089;-71
2022/07/27 07:18:38;;;;;;;14.52;10.32;;;;;;;41.81;21.73;98822.84;5069584;28;20040;-71
2022/07/27 07:21:06;;;;;;;22.98;10.68;;;;;;;42.39;20.94;98834.97;5040904;28;20040;-71
2022/07/27 07:23:32;;;;;;;20.70;10.52;;;;;;;42.91;20.34;98845.72;5111128;28;20043;-71
2022/07/27 07:26:00;;;;;;;14.60;10.00;;;;;;;42.56;20.26;98837.88;5076952;28;20171;-71
2022/07/27 07:28:28;;;;;;;16.10;9.80;;;;;;;43.44;19.65;98841.19;5073483;28;20806;-70
2022/07/27 07:30:53;;;;;;;14.45;9.35;;;;;;;44.29;18.89;98837.41;5092147;28;20044;-71
2022/07/27 07:33:19;;;;;;;19.83;9.65;;;;;;;45.32;17.50;98832.41;5069403;28;20042;-70
2022/07/27 07:35:45;;;;;;;14.05;9.30;;;;;;;45.10;17.18;98828.09;5053527;28;20062;-70
2022/07/27 07:38:10;;;;;;;15.50;9.63;;;;;;;46.13;16.32;98855.25;5090311;28;20126;-71
2022/07/27 07:40:37;;;;;;;14.45;9.18;;;;;;;48.04;14.86;98851.91;5058076;28;20052;-70
2022/07/27 07:43:03;;;;;;;13.98;9.38;;;;;;;49.23;13.51;98854.59;5069124;28;20397;-72
2022/07/27 07:45:32;;;;;;;17.52;9.25;;;;;;;49.49;13.25;98854.47;5054915;28;20047;-71
2022/07/27 07:47:58;;;;;;;;;;;;;;;49.89;13.03;98858.03;5035932;28;20453;-71
2022/07/27 07:50:24;;;;;;;15.63;8.75;;;;;;;50.77;12.38;98855.84;5036121;28;19920;-71
2022/07/27 07:52:52;;;;;;;12.48;8.15;;;;;;;52.23;11.03;98855.53;5054134;28;20096;-70
2022/07/27 07:55:22;;;;;;;9.05;7.80;;;;;;;53.06;9.69;98853.06;5067717;28;20483;-72
2022/07/27 07:57:48;;;;;;;9.25;7.75;;;;;;;53.45;9.80;98858.09;5070863;28;20040;-71
2022/07/27 08:00:15;;;;;;;11.80;7.50;;;;;;;54.80;9.45;98863.50;5054962;28;20044;-71
2022/07/27 08:02:44;;;;;;;13.35;7.72;;;;;;;56.07;8.31;98852.72;5072390;28;20416;-70
2022/07/27 08:05:11;;;;;;;10.70;7.38;;;;;;;55.79;8.42;98849.16;5055560;28;20134;-71
2022/07/27 08:07:37;;;;;;;9.18;7.20;;;;;;;55.38;8.39;98834.84;5056302;28;20051;-71
2022/07/27 08:10:04;;;;;;;11.57;6.85;;;;;;;56.21;7.88;98847.06;5072689;28;20550;-72
2022/07/27 08:12:30;;;;;;;10.60;6.40;;;;;;;57.20;5.51;98836.16;5055567;28;20043;-72
2022/07/27 08:14:56;;;;;;;6.88;6.10;;;;;;;58.06;5.00;98837.41;5062161;27;20078;-73
2022/07/27 08:17:22;;;;;;;9.82;6.05;;;;;;;58.79;3.86;98840.00;5131289;27;20035;-73
2022/07/27 08:19:47;;;;;;;10.43;6.32;;;;;;;59.12;4.61;98846.09;5079487;27;20031;-73
2022/07/27 08:22:13;;;;;;;8.85;6.88;;;;;;;57.00;6.13;98834.00;5096608;27;20490;-73
2022/07/27 08:24:39;;;;;;;11.57;6.43;;;;;;;56.71;6.75;98830.28;5096682;27;20091;-72
2022/07/27 08:27:05;;;;;;;10.27;6.68;;;;;;;56.29;6.95;98822.63;5081501;27;20039;-74
2022/07/27 08:29:31;;;;;;;8.43;6.03;;;;;;;57.64;5.75;98834.13;5097774;27;20039;-72
2022/07/27 08:31:57;;;;;;;9.57;6.82;;;;;;;57.26;6.63;98823.59;5081341;27;20383;-72
2022/07/27 08:34:22;;;;;;;9.88;6.57;;;;;;;57.86;6.51;98839.44;5079758;27;20066;-73
2022/07/27 08:36:48;;;;;;;7.47;6.40;;;;;;;58.58;5.85;98842.06;5079882;27;20588;-73
2022/07/27 08:39:15;;;;;;;10.30;6.32;;;;;;;57.23;6.61;98830.28;5079848;27;20039;-73
2022/07/27 08:41:41;;;;;;;8.45;6.40;;;;;;;57.38;6.36;98827.41;5096617;27;20042;-72
2022/07/27 08:44:12;;;;;;;7.30;6.57;;;;;;;58.93;5.54;98830.53;5078653;27;20081;-73
2022/07/27 08:46:39;;;;;;;10.30;6.15;;;;;;;59.51;5.33;98832.97;5061792;27;20052;-72
2022/07/27 08:49:07;;;;;;;7.28;6.47;;;;;;;60.76;4.78;98833.53;5095305;27;20058;-73
2022/07/27 08:51:33;;;;;;;6.57;5.85;;;;;;;61.61;4.29;98839.69;5096239;27;20047;-74
2022/07/27 08:53:59;;;;;;;5.93;5.43;;;;;;;62.15;3.88;98831.56;5079553;27;20101;-78
2022/07/27 08:56:25;;;;;;;7.38;4.90;;;;;;;62.37;3.08;98826.53;5079422;27;20047;-74
2022/07/27 08:58:51;;;;;;;9.30;5.32;;;;;;;62.21;3.11;98818.69;5113840;27;20039;-74
2022/07/27 09:01:16;;;;;;;6.32;4.97;;;;;;;62.19;3.10;98823.44;5079408;27;20035;-74
2022/07/27 09:03:45;;;;;;;7.30;4.97;;;;;;;62.27;3.17;98816.59;5088405;27;20047;-76
2022/07/27 09:06:11;;;;;;;8.32;5.28;;;;;;;61.02;4.05;98813.25;5078650;27;20080;-73
2022/07/27 09:08:40;;;;;;;7.60;5.70;;;;;;;59.83;4.89;98805.06;5095998;27;20047;-72
2022/07/27 09:11:14;;;;;;;7.53;5.90;;;;;;;58.64;5.13;98799.22;5130880;27;20122;-72
2022/07/27 09:13:40;;;;;;;7.38;5.25;;;;;;;59.08;5.13;98799.72;5130343;27;20057;-73
2022/07/27 09:16:07;;;;;;;9.85;5.75;;;;;;;60.14;5.07;98805.84;5094783;27;20039;-72
2022/07/27 09:18:36;;;;;;;10.95;5.40;;;;;;;61.56;4.09;98817.50;5094959;28;20039;-73
2022/07/27 09:21:19;;;;;;;9.30;5.43;;;;;;;62.90;3.32;98822.38;5111826;27;20402;-72
2022/07/27 09:23:47;;;;;;;9.70;5.72;;;;;;;61.83;4.00;98813.81;5112087;27;20051;-73
2022/07/27 09:26:15;;;;;;;13.40;6.70;;;;;;;61.25;4.31;98809.13;5111133;27;20042;-73
2022/07/27 09:28:41;;;;;;;7.68;6.22;;;;;;;61.04;4.78;98802.78;5095196;27;20285;-73
2022/07/27 09:31:08;;;;;;;11.18;6.20;;;;;;;61.10;4.86;98806.44;5094523;27;20035;-73
2022/07/27 09:33:51;;;;;;;13.33;6.37;;;;;;;58.80;6.17;98778.56;5061332;27;20412;-73
2022/07/27 09:36:19;;;;;;;15.05;6.78;;;;;;;57.61;6.50;98806.53;5077791;28;20121;-73
2022/07/27 09:39:02;;;;;;;13.65;6.50;;;;;;;59.10;5.67;98800.78;5112265;28;20145;-72
2022/07/27 09:41:42;;;;;;;10.27;6.38;;;;;;;58.34;6.00;98800.63;5094961;28;20045;-73
2022/07/27 09:44:07;;;;;;;7.53;6.60;;;;;;;56.67;7.22;98792.56;5111889;28;20042;-73
2022/07/27 09:46:36;;;;;;;14.93;7.43;;;;;;;55.02;7.91;98789.34;5095141;28;20490;-72
2022/07/27 09:49:02;;;;;;;10.75;8.25;;;;;;;53.53;9.46;98793.28;5111936;28;20038;-70
2022/07/27 09:51:29;;;;;;;9.05;8.05;;;;;;;54.12;9.19;98785.16;5109467;28;20494;-72
2022/07/27 09:53:59;;;;;;;15.52;8.38;;;;;;;55.23;8.55;98777.75;5069384;28;20052;-71
2022/07/27 09:56:30;;;;;;;13.70;8.35;;;;;;;56.39;7.68;98786.28;5087585;28;20154;-71
2022/07/27 09:58:57;;;;;;;16.23;7.75;;;;;;;57.78;6.64;98786.81;5090028;28;20078;-72
2022/07/27 10:01:31;;;;;;;9.43;7.60;;;;;;;58.80;6.38;98796.56;5105224;28;20042;-71
2022/07/27 10:04:02;;;;;;;8.27;7.10;;;;;;;57.51;6.02;98799.34;5108037;28;20047;-72
2022/07/27 10:06:31;;;;;;;11.65;6.68;;;;;;;56.12;6.82;98786.44;5073172;28;20530;-70
2022/07/27 10:08:57;;;;;;;8.40;6.70;;;;;;;54.37;7.46;98779.22;5087599;28;20050;-71
2022/07/27 10:11:24;;;;;;;9.25;7.00;;;;;;;51.82;9.51;98750.81;5072123;28;20039;-71
2022/07/27 10:13:52;;;;;;;13.93;7.45;;;;;;;51.06;10.08;98766.94;5054118;28;20047;-72
2022/07/27 10:16:24;;;;;;;10.70;7.90;;;;;;;50.84;10.34;98757.44;5086488;28;20100;-71
2022/07/27 10:19:05;;;;;;;10.57;7.13;;;;;;;52.59;8.97;98768.00;5108098;28;20560;-72
2022/07/27 10:21:32;;;;;;;10.30;7.32;;;;;;;52.58;8.13;98769.25;5062689;28;20380;-72
2022/07/27 10:24:01;;;;;;;13.70;7.53;;;;;;;53.04;8.23;98776.88;5094666;28;20040;-73
2022/07/27 10:26:32;;;;;;;11.77;7.55;;;;;;;53.99;7.88;98780.84;5095205;28;20134;-73
2022/07/27 10:29:12;;;;;;;17.38;7.30;;;;;;;53.52;7.78;98783.94;5095115;28;20086;-74
2022/07/27 10:31:54;;;;;;;10.93;7.15;;;;;;;51.68;8.73;98768.28;5094491;28;20054;-73
2022/07/27 10:34:40;;;;;;;10.50;7.20;;;;;;;49.08;10.58;98744.91;5094309;28;20039;-72
2022/07/27 10:37:30;;;;;;;9.68;7.60;;;;;;;49.49;10.97;98766.16;5078180;28;20039;-74
2022/07/27 10:42:46;;;;;;;12.15;7.38;;;;;;;50.37;10.00;98759.97;5097379;28;20051;-72
2022/07/27 10:45:14;;;;;;;14.43;8.07;;;;;;;50.53;10.12;98742.94;5094667;28;20134;-72
2022/07/27 10:47:47;;;;;;;9.32;8.23;;;;;;;49.23;11.35;98751.00;5078162;28;20101;-71
2022/07/27 10:50:16;;;;;;;12.65;8.70;;;;;;;47.02;13.06;98752.78;5094776;28;20415;-74
2022/07/27 10:52:57;;;;;;;11.30;8.38;;;;;;;46.99;13.52;98750.00;5094840;28;20100;-76
2022/07/27 10:55:29;;;;;;;10.05;8.63;;;;;;;48.12;12.79;98764.03;5077820;28;20055;-71
2022/07/27 10:58:13;;;;;;;13.90;8.27;;;;;;;50.28;11.15;98768.28;5094754;28;20140;-74
2022/07/27 11:00:48;;;;;;;9.13;7.60;;;;;;;51.94;9.74;98769.84;5077981;28;20054;-72
2022/07/27 11:03:29;;;;;;;10.48;7.75;;;;;;;53.35;8.74;98776.94;5094833;28;20035;-73
2022/07/27 11:06:25;;;;;;;13.27;7.15;;;;;;;54.26;8.25;98776.03;5061122;28;20047;-71
2022/07/27 11:08:54;;;;;;;8.48;6.97;;;;;;;52.88;8.75;98782.75;5077829;28;20055;-72
2022/07/27 11:11:23;;;;;;;;;;;;;;;52.82;8.36;98770.41;5061314;28;20569;-72
2022/07/27 11:13:52;;;;;;;9.50;6.82;;;;;;;53.15;8.00;98767.94;5076513;28;19946;-72
2022/07/27 11:16:19;;;;;;;8.82;7.20;;;;;;;52.33;8.44;98746.69;5111815;28;20507;-73
2022/07/27 11:18:53;;;;;;;7.80;7.05;;;;;;;50.87;9.52;98742.41;5060818;28;20127;-70
2022/07/27 11:21:22;;;;;;;8.60;7.78;;;;;;;49.29;11.07;98745.66;5078196;28;20040;-72
2022/07/27 11:23:50;;;;;;;11.73;8.13;;;;;;;48.45;11.93;98742.53;5060781;28;20059;-71
2022/07/27 11:26:20;;;;;;;12.45;7.82;;;;;;;47.72;12.28;98738.97;5094337;28;20507;-70
2022/07/27 11:28:48;;;;;;;14.60;8.75;;;;;;;47.22;13.04;98738.88;5077442;28;20490;-71
2022/07/27 11:31:17;;;;;;;14.45;9.23;;;;;;;46.35;13.63;98738.66;5075752;28;20051;-70
2022/07/27 11:33:58;;;;;;;20.02;8.80;;;;;;;45.81;14.53;98739.53;5091952;28;20043;-71
2022/07/27 11:37:00;;;;;;;10.98;8.73;;;;;;;44.29;15.36;98744.97;5077764;28;20039;-67